createdAt,value
2023-05-22T00:02:15.402Z,101402.63
2023-05-22T00:04:46.874Z,101408.59
2023-05-22T00:07:15.278Z,101411.97
2023-05-22T00:09:43.528Z,101417.25
2023-05-22T00:12:11.623Z,101422.50
2023-05-22T00:14:39.825Z,101419.44
2023-05-22T00:17:07.997Z,101412.19
2023-05-22T00:19:36.510Z,101416.56
2023-05-22T00:22:06.795Z,101408.88
2023-05-22T00:24:34.855Z,101413.81
2023-05-22T00:27:02.968Z,101411.78
2023-05-22T00:29:31.299Z,101409.22
2023-05-22T00:31:59.650Z,101404.13
2023-05-22T00:34:28.079Z,101407.84
2023-05-22T00:36:56.177Z,101406.16
2023-05-22T00:39:25.715Z,101408.50
2023-05-22T00:41:54.186Z,101409.22
2023-05-22T00:44:23.230Z,101410.06
2023-05-22T00:46:52.273Z,101409.22
2023-05-22T00:49:20.816Z,101409.03
2023-05-22T00:51:49.112Z,101412.94
2023-05-22T00:54:18.154Z,101414.47
2023-05-22T00:56:47.955Z,101413.59
2023-05-22T00:59:17.098Z,101420.75
2023-05-22T01:01:45.349Z,101417.34
2023-05-22T01:04:15.790Z,101417.34
2023-05-22T01:06:47.852Z,101417.34
2023-05-22T01:09:16.383Z,101412.22
2023-05-22T01:11:49.918Z,101419.53
2023-05-22T01:14:24.887Z,101408.13
2023-05-22T01:16:56.362Z,101418.31
2023-05-22T01:19:39.642Z,101421.72
2023-05-22T01:22:14.314Z,101416.28
2023-05-22T01:24:54.306Z,101412.88
2023-05-22T01:27:49.883Z,101413.56
2023-05-22T01:30:29.333Z,101421.03
2023-05-22T01:32:59.889Z,101430.56
2023-05-22T01:35:29.205Z,101432.28
2023-05-22T01:37:58.808Z,101426.50
2023-05-22T01:40:27.334Z,101437.38
2023-05-22T01:42:55.467Z,101435.34
2023-05-22T01:45:25.641Z,101424.13
2023-05-22T01:47:54.011Z,101425.84
2023-05-22T01:50:23.868Z,101427.56
2023-05-22T01:52:55.504Z,101426.72
2023-05-22T01:55:27.636Z,101423.84
2023-05-22T01:57:59.478Z,101430.09
2023-05-22T02:00:29.255Z,101421.78
2023-05-22T02:02:58.938Z,101426.22
2023-05-22T02:05:31.078Z,101419.91
2023-05-22T02:08:02.198Z,101431.66
2023-05-22T02:10:30.840Z,101429.78
2023-05-22T02:12:59.383Z,101426.22
2023-05-22T02:15:27.715Z,101425.69
2023-05-22T02:17:57.037Z,101421.97
2023-05-22T02:20:25.231Z,101429.91
2023-05-22T02:22:54.993Z,101435.00
2023-05-22T02:25:23.117Z,101429.72
2023-05-22T02:27:51.446Z,101432.28
2023-05-22T02:30:19.763Z,101429.69
2023-05-22T02:32:51.069Z,101437.50
2023-05-22T02:35:19.172Z,101442.91
2023-05-22T02:37:47.412Z,101445.09
2023-05-22T02:40:17.046Z,101450.19
2023-05-22T02:42:45.335Z,101444.38
2023-05-22T02:45:14.205Z,101444.00
2023-05-22T02:47:43.186Z,101444.63
2023-05-22T02:50:11.815Z,101445.34
2023-05-22T02:52:40.123Z,101451.94
2023-05-22T02:55:09.172Z,101450.38
2023-05-22T02:57:38.925Z,101443.81
2023-05-22T03:00:11.705Z,101450.38
2023-05-22T03:02:40.589Z,101443.97
2023-05-22T03:05:11.074Z,101436.75
2023-05-22T03:07:40.230Z,101437.72
2023-05-22T03:10:08.798Z,101433.56
2023-05-22T03:12:38.501Z,101439.88
2023-05-22T03:15:07.027Z,101430.78
2023-05-22T03:17:35.962Z,101439.25
2023-05-22T03:20:05.538Z,101442.50
2023-05-22T03:22:34.025Z,101447.69
2023-05-22T03:25:02.195Z,101447.47
2023-05-22T03:27:31.111Z,101443.22
2023-05-22T03:30:00.793Z,101436.97
2023-05-22T03:32:29.267Z,101434.91
2023-05-22T03:34:58.938Z,101427.09
2023-05-22T03:37:27.127Z,101424.63
2023-05-22T03:39:55.467Z,101420.81
2023-05-22T03:42:28.220Z,101417.13
2023-05-22T03:44:57.512Z,101421.06
2023-05-22T03:47:28.501Z,101428.50
2023-05-22T03:49:56.701Z,101419.28
2023-05-22T03:52:24.869Z,101421.19
2023-05-22T03:54:53.714Z,101425.59
2023-05-22T03:57:21.889Z,101434.34
2023-05-22T03:59:50.347Z,101443.16
2023-05-22T04:02:18.743Z,101457.41
2023-05-22T04:04:48.543Z,101452.44
2023-05-22T04:07:18.658Z,101455.84
2023-05-22T04:09:46.827Z,101458.72
2023-05-22T04:12:14.984Z,101463.13
2023-05-22T04:14:44.545Z,101463.56
2023-05-22T04:17:13.066Z,101470.28
2023-05-22T04:19:41.177Z,101469.44
2023-05-22T04:22:10.840Z,101470.59
2023-05-22T04:24:40.153Z,101477.16
2023-05-22T04:27:08.832Z,101474.59
2023-05-22T04:29:37.729Z,101465.53
2023-05-22T04:32:06.382Z,101479.06
2023-05-22T04:34:37.498Z,101478.53
2023-05-22T04:37:06.321Z,101477.56
2023-05-22T04:39:36.319Z,101486.06
2023-05-22T04:42:06.042Z,101488.94
2023-05-22T04:44:34.620Z,101503.44
2023-05-22T04:47:03.555Z,101492.09
2023-05-22T04:49:33.866Z,101495.63
2023-05-22T04:52:04.979Z,101502.91
2023-05-22T04:54:33.033Z,101511.72
2023-05-22T04:57:04.611Z,101514.72
2023-05-22T04:59:33.708Z,101521.13
2023-05-22T05:02:01.785Z,101516.75
2023-05-22T05:04:29.924Z,101517.75
2023-05-22T05:06:59.041Z,101522.16
2023-05-22T05:09:27.342Z,101523.16
2023-05-22T05:11:56.954Z,101521.44
2023-05-22T05:14:27.110Z,101526.84
2023-05-22T05:16:55.336Z,101532.84
2023-05-22T05:19:23.825Z,101527.31
2023-05-22T05:21:52.551Z,101517.94
2023-05-22T05:24:22.236Z,101512.38
2023-05-22T05:26:51.280Z,101509.69
2023-05-22T05:29:21.462Z,101513.56
2023-05-22T05:31:57.683Z,101505.00
2023-05-22T05:34:48.189Z,101497.16
2023-05-22T05:37:27.300Z,101509.69
2023-05-22T05:39:58.520Z,101501.28
2023-05-22T05:42:26.861Z,101495.59
2023-05-22T05:44:58.384Z,101496.75
2023-05-22T05:47:29.907Z,101494.47
2023-05-22T05:49:58.406Z,101495.06
2023-05-22T05:52:32.791Z,101501.88
2023-05-22T05:55:04.486Z,101504.44
2023-05-22T05:57:32.884Z,101513.28
2023-05-22T06:00:01.310Z,101514.41
2023-05-22T06:02:56.915Z,101522.38
2023-05-22T06:05:43.530Z,101531.47
2023-05-22T06:08:28.357Z,101531.47
2023-05-22T06:10:56.789Z,101529.63
2023-05-22T06:13:34.958Z,101536.31
2023-05-22T06:16:05.808Z,101529.19
2023-05-22T06:18:37.262Z,101539.38
2023-05-22T06:21:07.101Z,101535.59
2023-05-22T06:23:35.964Z,101535.22
2023-05-22T06:26:05.255Z,101544.88
2023-05-22T06:28:34.030Z,101517.75
2023-05-22T06:31:03.804Z,101517.97
2023-05-22T06:33:34.644Z,101510.00
2023-05-22T06:36:04.651Z,101499.16
2023-05-22T06:38:34.057Z,101495.59
2023-05-22T06:41:02.999Z,101493.94
2023-05-22T06:43:31.229Z,101494.53
2023-05-22T06:46:08.828Z,101493.47
2023-05-22T06:48:57.509Z,101503.91
2023-05-22T06:51:29.570Z,101508.88
2023-05-22T06:54:07.051Z,101498.56
2023-05-22T06:56:37.602Z,101495.75
2023-05-22T06:59:11.493Z,101492.84
2023-05-22T07:02:02.671Z,101489.19
2023-05-22T07:04:49.683Z,101489.88
2023-05-22T07:07:24.342Z,101506.84
2023-05-22T07:09:52.839Z,101497.69
2023-05-22T07:12:26.164Z,101510.25
2023-05-22T07:14:57.081Z,101501.44
2023-05-22T07:17:26.951Z,101508.72
2023-05-22T07:19:56.138Z,101505.91
2023-05-22T07:22:26.301Z,101499.41
2023-05-22T07:24:56.279Z,101508.09
2023-05-22T07:27:27.353Z,101513.63
2023-05-22T07:29:55.824Z,101508.00
2023-05-22T07:32:24.625Z,101490.69
2023-05-22T07:34:53.538Z,101478.09
2023-05-22T07:37:22.443Z,101479.44
2023-05-22T07:39:52.563Z,101480.06
2023-05-22T07:42:21.869Z,101482.19
2023-05-22T07:44:54.679Z,101478.13
2023-05-22T07:47:23.254Z,101469.34
2023-05-22T07:49:51.956Z,101465.94
2023-05-22T07:52:21.850Z,101456.53
2023-05-22T07:54:53.157Z,101456.78
2023-05-22T07:57:23.109Z,101452.03
2023-05-22T07:59:52.618Z,101449.38
2023-05-22T08:02:20.727Z,101451.03
2023-05-22T08:04:50.543Z,101460.13
2023-05-22T08:07:18.708Z,101453.72
2023-05-22T08:09:46.963Z,101458.16
2023-05-22T08:12:16.870Z,101466.34
2023-05-22T08:14:44.921Z,101468.03
2023-05-22T08:17:13.098Z,101467.56
2023-05-22T08:19:41.925Z,101469.00
2023-05-22T08:22:10.131Z,101471.03
2023-05-22T08:24:38.417Z,101472.28
2023-05-22T08:27:06.731Z,101473.63
2023-05-22T08:29:36.504Z,101472.72
2023-05-22T08:32:05.064Z,101469.84
2023-05-22T08:34:33.991Z,101477.25
2023-05-22T08:37:02.349Z,101482.31
2023-05-22T08:39:31.401Z,101483.88
2023-05-22T08:41:59.699Z,101485.06
2023-05-22T08:44:28.145Z,101478.78
2023-05-22T08:47:00.307Z,101482.81
2023-05-22T08:49:28.676Z,101468.69
2023-05-22T08:52:01.666Z,101476.09
2023-05-22T08:54:30.255Z,101472.38
2023-05-22T08:56:58.940Z,101466.28
2023-05-22T08:59:27.101Z,101467.59
2023-05-22T09:01:55.195Z,101471.69
2023-05-22T09:04:25.681Z,101480.94
2023-05-22T09:06:55.287Z,101469.81
2023-05-22T09:09:23.870Z,101476.97
2023-05-22T09:11:52.306Z,101473.81
2023-05-22T09:14:20.614Z,101472.88
2023-05-22T09:16:49.572Z,101466.44
2023-05-22T09:19:17.818Z,101457.81
2023-05-22T09:21:48.076Z,101463.91
2023-05-22T09:24:16.393Z,101461.78
2023-05-22T09:26:44.896Z,101457.44
2023-05-22T09:29:12.994Z,101465.22
2023-05-22T09:31:45.138Z,101465.06
2023-05-22T09:34:16.017Z,101462.59
2023-05-22T09:36:44.791Z,101452.47
2023-05-22T09:39:14.486Z,101463.63
2023-05-22T09:41:42.576Z,101448.22
2023-05-22T09:44:14.583Z,101453.75
2023-05-22T09:46:43.516Z,101445.91
2023-05-22T09:49:15.064Z,101461.28
2023-05-22T09:51:47.891Z,101455.81
2023-05-22T09:54:18.039Z,101456.69
2023-05-22T09:56:50.288Z,101444.56
2023-05-22T09:59:21.920Z,101436.41
2023-05-22T10:01:51.775Z,101434.03
2023-05-22T10:04:20.707Z,101434.09
2023-05-22T10:06:51.518Z,101443.75
2023-05-22T10:09:23.385Z,101439.69
2023-05-22T10:11:54.546Z,101431.00
2023-05-22T10:14:23.493Z,101434.56
2023-05-22T10:16:52.224Z,101443.38
2023-05-22T10:19:20.874Z,101437.47
2023-05-22T10:21:49.569Z,101445.28
2023-05-22T10:24:18.378Z,101442.88
2023-05-22T10:26:48.826Z,101443.16
2023-05-22T10:29:19.282Z,101442.47
2023-05-22T10:31:55.061Z,101438.97
2023-05-22T10:34:31.474Z,101442.56
2023-05-22T10:37:18.047Z,101447.94
2023-05-22T10:39:55.885Z,101450.75
2023-05-22T10:42:25.655Z,101441.88
2023-05-22T10:44:54.515Z,101439.59
2023-05-22T10:47:22.881Z,101432.13
2023-05-22T10:49:51.511Z,101434.13
2023-05-22T10:52:22.041Z,101440.97
2023-05-22T10:54:53.730Z,101446.50
2023-05-22T10:57:25.952Z,101450.63
2023-05-22T11:00:07.487Z,101441.31
2023-05-22T11:02:39.535Z,101445.56
2023-05-22T11:05:26.439Z,101446.66
2023-05-22T11:08:10.432Z,101466.31
2023-05-22T11:10:54.854Z,101449.72
2023-05-22T11:13:23.421Z,101449.34
2023-05-22T11:15:53.405Z,101451.56
2023-05-22T11:18:22.285Z,101450.97
2023-05-22T11:20:50.995Z,101457.31
2023-05-22T11:23:19.935Z,101456.56
2023-05-22T11:25:48.040Z,101443.47
2023-05-22T11:28:16.432Z,101446.81
2023-05-22T11:30:46.264Z,101449.19
2023-05-22T11:33:16.631Z,101447.22
2023-05-22T11:35:46.133Z,101438.91
2023-05-22T11:38:16.032Z,101444.22
2023-05-22T11:40:44.114Z,101461.69
2023-05-22T11:43:12.202Z,101461.53
2023-05-22T11:45:41.311Z,101451.81
2023-05-22T11:48:09.956Z,101457.25
2023-05-22T11:50:42.467Z,101449.97
2023-05-22T11:53:11.115Z,101448.66
2023-05-22T11:55:39.161Z,101447.84
2023-05-22T11:58:07.242Z,101451.88
2023-05-22T12:00:35.445Z,101448.09
2023-05-22T12:03:04.406Z,101454.34
2023-05-22T12:05:33.000Z,101450.84
2023-05-22T12:08:02.927Z,101445.63
2023-05-22T12:10:32.749Z,101451.06
2023-05-22T12:13:00.844Z,101455.47
2023-05-22T12:15:29.037Z,101446.13
2023-05-22T12:17:57.616Z,101448.41
2023-05-22T12:20:30.154Z,101457.75
2023-05-22T12:22:59.064Z,101451.47
2023-05-22T12:25:34.545Z,101443.97
2023-05-22T12:28:02.743Z,101438.44
2023-05-22T12:30:40.763Z,101439.53
2023-05-22T12:33:13.512Z,101445.56
2023-05-22T12:35:42.575Z,101449.19
2023-05-22T12:38:13.678Z,101449.13
2023-05-22T12:40:43.290Z,101446.59
2023-05-22T12:43:11.866Z,101463.38
2023-05-22T12:45:42.352Z,101464.91
2023-05-22T12:48:10.677Z,101460.00
2023-05-22T12:50:39.061Z,101453.06
2023-05-22T12:53:07.825Z,101460.72
2023-05-22T12:55:36.230Z,101455.22
2023-05-22T12:58:06.082Z,101450.16
2023-05-22T13:00:34.232Z,101443.41
2023-05-22T13:03:03.066Z,101450.84
2023-05-22T13:05:31.436Z,101443.88
2023-05-22T13:07:59.696Z,101437.78
2023-05-22T13:10:28.100Z,101440.31
2023-05-22T13:12:56.487Z,101440.66
2023-05-22T13:15:29.581Z,101435.00
2023-05-22T13:17:57.780Z,101439.47
2023-05-22T13:20:26.320Z,101450.69
2023-05-22T13:22:55.066Z,101454.53
2023-05-22T13:25:23.466Z,101461.53
2023-05-22T13:27:51.638Z,101457.44
2023-05-22T13:30:20.501Z,101458.47
2023-05-22T13:32:50.561Z,101463.13
2023-05-22T13:35:19.164Z,101468.81
2023-05-22T13:37:47.409Z,101455.09
2023-05-22T13:40:16.180Z,101461.00
2023-05-22T13:42:44.499Z,101468.19
2023-05-22T13:45:13.548Z,101470.28
2023-05-22T13:47:41.859Z,101465.41
2023-05-22T13:50:12.021Z,101469.66
2023-05-22T13:52:40.389Z,101473.47
2023-05-22T13:55:09.142Z,101484.47
2023-05-22T13:57:40.605Z,101479.16
2023-05-22T14:00:10.219Z,101474.31
2023-05-22T14:02:38.750Z,101470.97
2023-05-22T14:05:07.617Z,101470.50
2023-05-22T14:07:37.309Z,101470.38
2023-05-22T14:10:06.036Z,101470.09
2023-05-22T14:12:34.172Z,101479.00
2023-05-22T14:15:02.699Z,101474.75
2023-05-22T14:17:31.134Z,101477.06
2023-05-22T14:19:59.978Z,101470.72
2023-05-22T14:22:28.185Z,101472.19
2023-05-22T14:24:57.943Z,101467.13
2023-05-22T14:27:26.130Z,101468.59
2023-05-22T14:29:54.336Z,101465.44
2023-05-22T14:32:22.887Z,101465.00
2023-05-22T14:34:52.814Z,101458.03
2023-05-22T14:37:21.607Z,101459.94
2023-05-22T14:39:49.716Z,101457.19
2023-05-22T14:42:19.620Z,101447.91
2023-05-22T14:44:47.810Z,101459.50
2023-05-22T14:47:16.754Z,101453.78
2023-05-22T14:49:44.950Z,101455.03
2023-05-22T14:52:15.340Z,101456.91
2023-05-22T14:54:43.553Z,101454.88
2023-05-22T14:57:11.609Z,101472.63
2023-05-22T14:59:41.258Z,101470.94
2023-05-22T15:02:09.549Z,101476.44
2023-05-22T15:04:38.081Z,101466.63
2023-05-22T15:07:06.573Z,101478.34
2023-05-22T15:09:35.082Z,101477.72
2023-05-22T15:12:03.551Z,101469.53
2023-05-22T15:14:31.981Z,101466.50
2023-05-22T15:17:02.071Z,101462.59
2023-05-22T15:19:30.303Z,101469.72
2023-05-22T15:22:08.802Z,101467.47
2023-05-22T15:24:44.501Z,101476.22
2023-05-22T15:27:12.918Z,101477.13
2023-05-22T15:29:41.051Z,101476.44
2023-05-22T15:32:10.706Z,101474.41
2023-05-22T15:34:38.851Z,101473.56
2023-05-22T15:37:07.293Z,101468.31
2023-05-22T15:39:35.735Z,101474.63
2023-05-22T15:42:06.907Z,101463.22
2023-05-22T15:44:35.536Z,101474.19
2023-05-22T15:47:03.634Z,101455.19
2023-05-22T15:49:33.201Z,101466.56
2023-05-22T15:52:01.418Z,101471.66
2023-05-22T15:54:29.808Z,101477.50
2023-05-22T15:56:58.589Z,101480.34
2023-05-22T15:59:26.672Z,101488.03
2023-05-22T16:01:54.838Z,101487.28
2023-05-22T16:04:22.996Z,101483.56
2023-05-22T16:06:52.512Z,101489.59
2023-05-22T16:09:20.751Z,101493.53
2023-05-22T16:11:49.120Z,101493.31
2023-05-22T16:14:17.659Z,101493.50
2023-05-22T16:16:46.466Z,101478.38
2023-05-22T16:19:41.203Z,101477.63
2023-05-22T16:22:11.627Z,101489.84
2023-05-22T16:24:39.798Z,101496.34
2023-05-22T16:27:08.461Z,101494.25
2023-05-22T16:29:36.567Z,101489.25
2023-05-22T16:32:05.199Z,101485.09
2023-05-22T16:34:34.132Z,101489.59
2023-05-22T16:37:02.408Z,101490.13
2023-05-22T16:39:32.263Z,101482.09
2023-05-22T16:42:00.668Z,101492.47
2023-05-22T16:44:29.216Z,101489.00
2023-05-22T16:46:57.487Z,101487.28
2023-05-22T16:49:25.665Z,101491.28
2023-05-22T16:51:54.751Z,101485.25
2023-05-22T16:54:26.998Z,101485.81
2023-05-22T16:56:56.874Z,101483.50
2023-05-22T16:59:24.984Z,101481.56
2023-05-22T17:01:53.174Z,101478.09
2023-05-22T17:04:21.269Z,101481.44
2023-05-22T17:06:49.436Z,101480.72
2023-05-22T17:09:17.608Z,101473.53
2023-05-22T17:11:46.424Z,101468.31
2023-05-22T17:14:16.290Z,101481.97
2023-05-22T17:16:44.796Z,101481.19
2023-05-22T17:19:13.325Z,101485.19
2023-05-22T17:21:41.659Z,101474.09
2023-05-22T17:24:12.631Z,101485.63
2023-05-22T17:26:44.641Z,101479.97
2023-05-22T17:29:13.152Z,101479.22
2023-05-22T17:31:42.682Z,101481.13
2023-05-22T17:34:11.050Z,101483.94
2023-05-22T17:36:41.033Z,101488.34
2023-05-22T17:39:10.834Z,101483.66
2023-05-22T17:41:39.080Z,101484.66
2023-05-22T17:44:07.235Z,101480.72
2023-05-22T17:46:35.625Z,101483.16
2023-05-22T17:49:05.301Z,101477.16
2023-05-22T17:51:33.510Z,101481.03
2023-05-22T17:54:01.961Z,101487.84
2023-05-22T17:56:34.862Z,101490.41
2023-05-22T17:59:03.572Z,101488.25
2023-05-22T18:01:32.182Z,101495.03
2023-05-22T18:04:05.303Z,101495.53
2023-05-22T18:06:35.688Z,101486.84
2023-05-22T18:09:04.634Z,101487.47
2023-05-22T18:11:36.234Z,101484.50
2023-05-22T18:14:05.505Z,101480.59
2023-05-22T18:16:34.130Z,101485.97
2023-05-22T18:19:02.498Z,101492.66
2023-05-22T18:21:30.864Z,101492.94
2023-05-22T18:24:03.609Z,101501.53
2023-05-22T18:26:32.312Z,101491.66
2023-05-22T18:29:01.437Z,101495.41
2023-05-22T18:31:33.932Z,101498.16
2023-05-22T18:34:02.601Z,101503.13
2023-05-22T18:36:31.543Z,101507.66
2023-05-22T18:39:00.180Z,101513.31
2023-05-22T18:41:38.105Z,101500.97
2023-05-22T18:44:09.446Z,101507.09
2023-05-22T18:46:40.065Z,101518.69
2023-05-22T18:49:08.382Z,101514.00
2023-05-22T18:51:37.281Z,101519.34
2023-05-22T18:54:07.989Z,101526.72
2023-05-22T18:56:41.393Z,101512.47
2023-05-22T18:59:13.168Z,101506.63
2023-05-22T19:01:43.281Z,101515.78
2023-05-22T19:04:11.491Z,101519.25
2023-05-22T19:06:42.284Z,101529.34
2023-05-22T19:09:12.954Z,101523.25
2023-05-22T19:11:43.403Z,101524.28
2023-05-22T19:14:12.450Z,101525.25
2023-05-22T19:16:43.760Z,101538.66
2023-05-22T19:19:15.579Z,101541.16
2023-05-22T19:21:44.479Z,101535.56
2023-05-22T19:24:13.021Z,101536.66
2023-05-22T19:26:44.825Z,101539.72
2023-05-22T19:29:15.293Z,101545.22
2023-05-22T19:31:45.060Z,101550.69
2023-05-22T19:34:14.494Z,101545.47
2023-05-22T19:36:42.917Z,101542.28
2023-05-22T19:39:11.129Z,101545.09
2023-05-22T19:41:41.374Z,101557.25
2023-05-22T19:44:14.850Z,101549.28
2023-05-22T19:46:46.236Z,101545.56
2023-05-22T19:49:16.223Z,101561.25
2023-05-22T19:51:46.500Z,101562.06
2023-05-22T19:54:16.855Z,101566.81
2023-05-22T19:56:46.961Z,101575.06
2023-05-22T19:59:18.384Z,101566.91
2023-05-22T20:01:48.168Z,101584.28
2023-05-22T20:04:17.294Z,101595.00
2023-05-22T20:06:45.811Z,101591.06
2023-05-22T20:09:15.258Z,101599.41
2023-05-22T20:11:46.112Z,101600.63
2023-05-22T20:14:18.097Z,101591.91
2023-05-22T20:16:46.670Z,101596.84
2023-05-22T20:19:15.521Z,101595.81
2023-05-22T20:21:44.517Z,101607.34
2023-05-22T20:24:19.032Z,101601.94
2023-05-22T20:26:47.341Z,101600.34
2023-05-22T20:29:17.214Z,101601.16
2023-05-22T20:31:45.369Z,101606.06
2023-05-22T20:34:13.552Z,101598.38
2023-05-22T20:36:42.666Z,101609.53
2023-05-22T20:39:12.164Z,101612.44
2023-05-22T20:41:40.648Z,101614.09
2023-05-22T20:44:09.917Z,101621.13
2023-05-22T20:46:40.369Z,101623.25
2023-05-22T20:49:09.408Z,101628.06
2023-05-22T20:51:37.589Z,101623.38
2023-05-22T20:54:07.905Z,101622.38
2023-05-22T20:56:36.340Z,101623.00
2023-05-22T20:59:11.069Z,101629.66
2023-05-22T21:01:41.436Z,101640.34
2023-05-22T21:04:09.857Z,101638.53
2023-05-22T21:06:38.625Z,101646.59
2023-05-22T21:09:07.088Z,101641.34
2023-05-22T21:11:35.518Z,101649.69
2023-05-22T21:14:03.753Z,101650.03
2023-05-22T21:16:31.891Z,101657.50
2023-05-22T21:19:01.559Z,101656.34
2023-05-22T21:21:30.100Z,101668.78
2023-05-22T21:23:58.274Z,101670.66
2023-05-22T21:26:27.560Z,101658.00
2023-05-22T21:28:55.921Z,101659.00
2023-05-22T21:31:24.148Z,101662.47
2023-05-22T21:33:52.690Z,101661.03
2023-05-22T21:36:23.190Z,101669.00
2023-05-22T21:38:53.214Z,101670.28
2023-05-22T21:41:22.050Z,101679.00
2023-05-22T21:43:50.826Z,101673.44
2023-05-22T21:46:19.023Z,101669.88
2023-05-22T21:48:48.611Z,101674.97
2023-05-22T21:51:17.299Z,101681.91
2023-05-22T21:53:47.652Z,101682.75
2023-05-22T21:56:15.917Z,101675.78
2023-05-22T21:58:44.688Z,101680.63
2023-05-22T22:01:13.150Z,101676.75
2023-05-22T22:03:42.007Z,101678.56
2023-05-22T22:06:10.450Z,101681.97
2023-05-22T22:08:38.619Z,101693.56
2023-05-22T22:11:08.402Z,101694.72
2023-05-22T22:13:36.551Z,101697.81
2023-05-22T22:16:04.767Z,101701.47
2023-05-22T22:18:34.299Z,101702.75
2023-05-22T22:21:02.918Z,101699.00
2023-05-22T22:23:31.082Z,101701.09
2023-05-22T22:25:59.364Z,101703.81
2023-05-22T22:28:29.243Z,101703.38
2023-05-22T22:30:57.876Z,101710.59
2023-05-22T22:33:26.471Z,101713.56
2023-05-22T22:35:54.669Z,101712.13
2023-05-22T22:38:23.457Z,101719.22
2023-05-22T22:40:51.899Z,101717.50
2023-05-22T22:43:20.981Z,101719.38
2023-05-22T22:45:53.385Z,101717.66
2023-05-22T22:48:22.506Z,101722.59
2023-05-22T22:50:52.583Z,101726.56
2023-05-22T22:53:20.988Z,101734.19
2023-05-22T22:55:50.395Z,101739.84
2023-05-22T22:58:21.743Z,101745.38
2023-05-22T23:00:51.904Z,101756.56
2023-05-22T23:03:20.504Z,101748.72
2023-05-22T23:05:49.513Z,101744.31
2023-05-22T23:08:18.182Z,101742.00
2023-05-22T23:10:46.730Z,101741.66
2023-05-22T23:13:15.117Z,101751.97
2023-05-22T23:15:43.578Z,101749.53
2023-05-22T23:18:14.177Z,101747.56
2023-05-22T23:20:42.354Z,101755.78
2023-05-22T23:23:10.582Z,101758.63
2023-05-22T23:25:39.222Z,101753.47
2023-05-22T23:28:08.410Z,101758.28
2023-05-22T23:30:36.591Z,101757.41
2023-05-22T23:33:06.246Z,101761.13
2023-05-22T23:35:35.984Z,101773.28
2023-05-22T23:38:04.237Z,101758.19
2023-05-22T23:40:32.545Z,101765.09
2023-05-22T23:43:00.623Z,101765.22
2023-05-22T23:45:28.994Z,101766.31
2023-05-22T23:47:57.391Z,101758.34
2023-05-22T23:50:25.559Z,101758.00
2023-05-22T23:52:55.840Z,101758.97
2023-05-22T23:55:24.360Z,101754.19
2023-05-22T23:57:52.451Z,101752.59
